Time;durP1;ratioP1;P1;durP2;ratioP2;P2;SDS_P1;SDS_P2;PMS_P1;PMS_P2;Temp;Humidity;BMP_temperature;BMP_pressure;BME280_temperature;BME280_humidity;BME280_pressure;Samples;Min_cycle;Max_cycle;Signal;HPM_P1;HPM_P2
2022/06/09 02:21:27;;;;;;;12.70;4.07;;;;;;;15.37;100.00;93629.59;4962492;28;20054;-96
2022/06/09 02:23:53;;;;;;;9.63;3.80;;;;;;;14.98;100.00;93624.25;4946390;29;20066;-95
2022/06/09 02:26:19;;;;;;;11.93;4.63;;;;;;;14.62;100.00;93628.75;4946283;29;20062;-96
2022/06/09 02:32:28;;;;;;;15.77;5.88;;;;;;;14.62;100.00;93620.84;4968235;29;20042;-96
2022/06/09 02:34:54;;;;;;;11.75;4.50;;;;;;;14.80;100.00;93624.28;4972241;28;20106;-96
2022/06/09 02:37:19;;;;;;;7.28;4.03;;;;;;;14.99;100.00;93620.53;4967812;28;20073;-96
2022/06/09 02:39:45;;;;;;;11.35;3.63;;;;;;;14.99;100.00;93609.97;4977526;28;20065;-96
2022/06/09 02:42:11;;;;;;;6.15;3.75;;;;;;;14.93;100.00;93600.69;4947613;29;20040;-95
2022/06/09 02:44:36;;;;;;;6.25;3.58;;;;;;;15.02;100.00;93598.03;4946398;29;20098;-96
2022/06/09 02:47:12;;;;;;;7.93;3.15;;;;;;;14.91;100.00;93600.22;4953729;29;20031;-96
2022/06/09 02:49:41;;;;;;;8.90;3.75;;;;;;;14.53;100.00;93610.31;4956200;29;20051;-96
2022/06/09 02:52:07;;;;;;;4.53;3.00;;;;;;;14.67;100.00;93601.47;4949137;29;20039;-95
2022/06/09 02:54:34;;;;;;;4.57;3.28;;;;;;;14.80;100.00;93597.91;4977663;28;20038;-96
2022/06/09 02:57:06;;;;;;;8.02;4.57;;;;;;;14.34;100.00;93607.19;4954287;29;20031;-96
2022/06/09 02:59:32;;;;;;;11.95;4.10;;;;;;;14.50;100.00;93600.41;4972751;28;20068;-96
2022/06/09 03:01:57;;;;;;;5.97;3.30;;;;;;;14.62;100.00;93596.34;4946155;29;20038;-95
2022/06/09 03:04:23;;;;;;;8.60;3.47;;;;;;;14.64;100.00;93592.31;4944777;29;20070;-96
2022/06/09 03:06:48;;;;;;;10.50;4.25;;;;;;;14.63;100.00;93582.84;4947521;29;20087;-95
2022/06/09 03:09:17;;;;;;;7.97;4.07;;;;;;;14.48;100.00;93586.72;4954996;29;20453;-96
2022/06/09 03:11:43;;;;;;;6.88;4.40;;;;;;;14.19;100.00;93605.78;4974285;28;20043;-96
2022/06/09 03:14:10;;;;;;;12.35;4.18;;;;;;;14.39;100.00;93601.78;4966253;28;20035;-96
2022/06/09 03:16:36;;;;;;;7.72;3.60;;;;;;;14.22;100.00;93600.69;4946343;29;20045;-96
2022/06/09 03:19:02;;;;;;;11.85;4.22;;;;;;;14.29;100.00;93597.59;4944288;29;20037;-96
2022/06/09 03:21:28;;;;;;;7.90;4.38;;;;;;;14.31;100.00;93598.06;4960157;28;20035;-96
2022/06/09 03:23:54;;;;;;;8.93;3.70;;;;;;;14.42;100.00;93594.03;4944312;29;20039;-95
2022/06/09 03:26:19;;;;;;;7.72;4.57;;;;;;;14.47;100.00;93593.09;4945656;29;20095;-96
2022/06/09 03:28:45;;;;;;;7.82;4.72;;;;;;;14.55;100.00;93596.81;4944884;29;20433;-96
2022/06/09 03:31:12;;;;;;;10.50;5.28;;;;;;;14.38;100.00;93600.25;4946563;29;20068;-96
2022/06/09 03:33:40;;;;;;;10.20;4.97;;;;;;;14.34;100.00;93602.72;4951799;29;20054;-96
2022/06/09 03:36:10;;;;;;;13.38;5.03;;;;;;;14.12;100.00;93614.91;4965268;28;20038;-95
2022/06/09 03:38:39;;;;;;;9.27;5.13;;;;;;;14.17;100.00;93619.25;4948478;29;20035;-96
2022/06/09 03:41:07;;;;;;;10.10;4.55;;;;;;;14.52;100.00;93608.75;4950506;29;20035;-96
2022/06/09 03:43:34;;;;;;;17.63;5.22;;;;;;;14.52;100.00;93607.97;4945488;29;20352;-95
2022/06/09 03:46:00;;;;;;;8.30;4.53;;;;;;;14.24;100.00;93610.91;4961150;29;20023;-96
2022/06/09 03:48:26;;;;;;;8.60;4.82;;;;;;;14.30;100.00;93616.81;4943737;29;20433;-95
2022/06/09 03:50:52;;;;;;;8.48;4.68;;;;;;;14.35;100.00;93614.03;4944598;29;20023;-96
2022/06/09 03:53:17;;;;;;;13.20;5.45;;;;;;;14.07;100.00;93635.38;4946956;29;20030;-96
2022/06/09 03:55:43;;;;;;;12.93;6.18;;;;;;;13.92;100.00;93639.22;4944242;29;20030;-95
2022/06/09 03:58:09;;;;;;;21.00;6.35;;;;;;;13.65;100.00;93649.66;4946944;29;20118;-96
2022/06/09 04:00:37;;;;;;;13.48;6.13;;;;;;;13.66;100.00;93661.75;4947111;29;20034;-96
2022/06/09 04:03:04;;;;;;;9.27;5.03;;;;;;;14.18;100.00;93651.66;4950862;29;20038;-95
2022/06/09 04:05:30;;;;;;;18.92;5.00;;;;;;;14.39;100.00;93643.94;4949855;29;20027;-95
2022/06/09 04:08:01;;;;;;;10.30;5.13;;;;;;;14.44;100.00;93646.41;4950536;29;20495;-95
2022/06/09 04:10:45;;;;;;;10.48;5.63;;;;;;;14.43;100.00;93647.50;4961010;29;20052;-96
2022/06/09 04:13:18;;;;;;;11.45;5.20;;;;;;;14.48;100.00;93655.25;4968214;28;20020;-96
2022/06/09 04:15:46;;;;;;;7.32;5.00;;;;;;;14.45;100.00;93657.75;4964351;28;20027;-96
2022/06/09 04:18:12;;;;;;;7.75;5.03;;;;;;;14.60;100.00;93648.59;4947472;29;20031;-95
2022/06/09 04:20:38;;;;;;;14.02;6.63;;;;;;;14.66;100.00;93642.88;4966681;29;20326;-96
2022/06/09 04:23:04;;;;;;;10.77;7.38;;;;;;;14.93;100.00;93646.28;4962323;29;20045;-95
2022/06/09 04:25:29;;;;;;;11.07;7.57;;;;;;;15.01;100.00;93639.47;4970861;28;20078;-96
2022/06/09 04:31:17;;;;;;;13.23;7.30;;;;;;;14.97;100.00;93638.53;4967696;29;20054;-95
2022/06/09 04:33:43;;;;;;;13.50;8.65;;;;;;;14.62;100.00;93654.34;4971103;28;20087;-95
2022/06/09 04:36:11;;;;;;;22.88;8.65;;;;;;;14.49;100.00;93669.22;4975945;28;20027;-96
2022/06/09 04:38:39;;;;;;;13.77;7.20;;;;;;;14.48;100.00;93681.59;4978239;28;20051;-96
2022/06/09 04:41:10;;;;;;;12.98;8.20;;;;;;;14.84;100.00;93662.13;4972603;29;20027;-94
2022/06/09 04:43:44;;;;;;;12.98;7.18;;;;;;;15.33;100.00;93657.72;4958295;29;20034;-95
2022/06/09 04:46:12;;;;;;;10.90;5.50;;;;;;;15.61;100.00;93655.44;4958419;29;20073;-94
2022/06/09 04:48:38;;;;;;;14.02;6.20;;;;;;;15.56;100.00;93655.63;4974340;28;20030;-95
2022/06/09 04:51:05;;;;;;;13.68;5.88;;;;;;;15.76;100.00;93650.72;4959226;28;20030;-94
2022/06/09 04:53:31;;;;;;;11.70;6.10;;;;;;;15.97;100.00;93654.25;4959165;28;20030;-94
2022/06/09 04:55:59;;;;;;;8.73;6.43;;;;;;;16.11;100.00;93655.91;4959157;28;20027;-93
2022/06/09 04:58:24;;;;;;;15.57;8.23;;;;;;;15.74;100.00;93652.91;4959166;28;20109;-93
2022/06/09 05:00:50;;;;;;;11.02;8.07;;;;;;;16.00;100.00;93652.06;4959151;28;20027;-95
2022/06/09 05:03:15;;;;;;;11.05;7.25;;;;;;;16.33;100.00;93648.75;4959156;28;20035;-95
2022/06/09 05:05:43;;;;;;;14.15;8.10;;;;;;;16.56;100.00;93651.09;4959111;28;20020;-93
2022/06/09 05:08:14;;;;;;;18.45;8.85;;;;;;;16.34;100.00;93656.38;4959334;28;20027;-94
2022/06/09 05:10:41;;;;;;;15.90;9.32;;;;;;;16.79;100.00;93657.63;4959230;28;20118;-95
2022/06/09 05:13:07;;;;;;;9.70;5.10;;;;;;;16.37;100.00;93658.38;4959069;28;20028;-95
2022/06/09 05:15:36;;;;;;;14.45;9.30;;;;;;;17.01;100.00;93657.63;4959140;28;20174;-96
2022/06/09 05:18:02;;;;;;;15.60;9.70;;;;;;;16.78;100.00;93653.41;4958569;29;20034;-92
2022/06/09 05:20:27;;;;;;;17.30;9.13;;;;;;;16.65;100.00;93647.28;4960951;28;20436;-94
2022/06/09 05:22:53;;;;;;;18.23;9.95;;;;;;;16.81;100.00;93650.13;4971785;28;20040;-94
2022/06/09 05:25:21;;;;;;;17.80;9.98;;;;;;;17.06;100.00;93654.78;4964946;28;20353;-95
2022/06/09 05:31:12;;;;;;;18.90;12.73;;;;;;;16.57;100.00;93657.94;5106266;23;20150;-96
2022/06/09 05:36:31;;;;;;;19.13;11.90;;;;;;;16.36;100.00;93677.97;5485592;23;20053;-94
2022/06/09 05:47:00;;;;;;;15.57;10.57;;;;;;;16.31;100.00;93667.59;5496787;23;20062;-94
2022/06/09 05:49:26;;;;;;;17.42;11.02;;;;;;;16.71;100.00;93671.69;4965144;28;20023;-94
2022/06/09 05:51:52;;;;;;;14.95;11.18;;;;;;;16.93;100.00;93667.94;4964859;28;20515;-95
2022/06/09 05:54:19;;;;;;;24.42;12.95;;;;;;;16.60;100.00;93670.50;4966317;28;20030;-95
2022/06/09 05:56:45;;;;;;;17.40;11.18;;;;;;;16.36;100.00;93680.63;4965189;28;20031;-93
2022/06/09 05:59:11;;;;;;;25.23;15.70;;;;;;;16.78;100.00;93671.91;4964536;28;20026;-93
2022/06/09 06:01:36;;;;;;;18.30;11.20;;;;;;;17.76;100.00;93672.59;4980506;28;20317;-93
2022/06/09 06:04:03;;;;;;;27.63;17.25;;;;;;;17.99;100.00;93672.16;4964751;28;20098;-93
2022/06/09 06:06:35;;;;;;;33.67;16.25;;;;;;;17.99;100.00;93674.81;4964321;28;20037;-93
2022/06/09 06:09:05;;;;;;;21.50;13.68;;;;;;;18.52;100.00;93682.09;4965149;28;20045;-94
2022/06/09 06:11:31;;;;;;;15.93;11.55;;;;;;;18.78;100.00;93681.69;4964716;28;20126;-93
2022/06/09 06:13:57;;;;;;;14.55;10.52;;;;;;;18.94;100.00;93691.63;4964901;28;20448;-91
2022/06/09 06:16:23;;;;;;;17.27;10.80;;;;;;;18.80;100.00;93692.00;4964402;28;20391;-91
2022/06/09 06:18:49;;;;;;;16.05;10.70;;;;;;;18.70;100.00;93697.75;4964168;28;20030;-91
2022/06/09 06:21:16;;;;;;;23.17;10.93;;;;;;;18.73;100.00;93695.22;4964019;28;20041;-93
2022/06/09 06:23:41;;;;;;;17.98;9.80;;;;;;;18.04;100.00;93687.88;4963950;28;20030;-92
2022/06/09 06:26:07;;;;;;;19.02;12.40;;;;;;;17.49;100.00;93688.00;4964418;28;20034;-93
2022/06/09 06:28:33;;;;;;;18.63;11.93;;;;;;;17.61;100.00;93687.25;4979991;28;20027;-91
2022/06/09 06:30:58;;;;;;;13.85;9.38;;;;;;;18.69;100.00;93689.03;4964020;28;20031;-92
2022/06/09 06:33:25;;;;;;;18.88;11.13;;;;;;;19.27;100.00;93692.50;4963946;28;20029;-91
2022/06/09 06:35:50;;;;;;;17.77;9.93;;;;;;;19.43;100.00;93700.53;4963784;28;20322;-91
2022/06/09 06:38:16;;;;;;;17.00;9.73;;;;;;;18.61;100.00;93696.00;4964150;28;20031;-93
2022/06/09 06:40:42;;;;;;;8.55;5.15;;;;;;;18.33;100.00;93695.94;4963747;28;20039;-92
2022/06/09 06:43:08;;;;;;;12.65;8.00;;;;;;;19.16;100.00;93706.28;4963632;28;20039;-92
2022/06/09 06:45:33;;;;;;;9.63;6.22;;;;;;;19.04;100.00;93696.47;4963612;28;20125;-93
2022/06/09 06:47:58;;;;;;;8.07;5.68;;;;;;;18.62;100.00;93696.78;4963937;28;20039;-91
2022/06/09 06:50:25;;;;;;;8.90;1.98;;;;;;;18.28;100.00;93704.88;4965053;28;20022;-93
2022/06/09 06:52:50;;;;;;;4.30;1.55;;;;;;;19.03;100.00;93705.56;4963884;28;20027;-92
2022/06/09 06:55:18;;;;;;;8.85;1.60;;;;;;;18.65;100.00;93710.16;4963508;28;20026;-92
2022/06/09 06:57:44;;;;;;;4.90;1.30;;;;;;;18.97;100.00;93716.72;4978640;28;20026;-92
2022/06/09 07:00:13;;;;;;;3.65;1.08;;;;;;;19.19;100.00;93720.75;4963462;28;20117;-88
2022/06/09 07:02:42;;;;;;;2.35;1.15;;;;;;;20.04;100.00;93728.66;4979264;28;20541;-94
2022/06/09 07:05:08;;;;;;;1.17;0.93;;;;;;;19.80;100.00;93724.25;4979174;28;20431;-93
2022/06/09 07:07:37;;;;;;;5.30;1.27;;;;;;;19.89;100.00;93732.06;4963663;28;20069;-89
2022/06/09 07:10:13;;;;;;;2.75;1.25;;;;;;;19.59;100.00;93730.56;4979552;28;20086;-91
2022/06/09 07:12:40;;;;;;;4.30;1.17;;;;;;;19.14;100.00;93731.63;4964930;28;20336;-90
2022/06/09 07:15:09;;;;;;;4.40;1.00;;;;;;;19.43;100.00;93738.47;4963294;28;20027;-94
2022/06/09 07:17:41;;;;;;;2.10;1.00;;;;;;;19.81;100.00;93736.44;4963771;28;20039;-92
2022/06/09 07:20:08;;;;;;;1.75;1.10;;;;;;;19.57;100.00;93737.31;4959826;29;20027;-91
2022/06/09 07:22:34;;;;;;;3.05;0.70;;;;;;;19.62;100.00;93737.84;4959615;29;20031;-90
2022/06/09 07:24:59;;;;;;;1.08;0.82;;;;;;;19.19;100.00;93744.66;4976174;28;20035;-95
2022/06/09 07:27:25;;;;;;;3.08;1.00;;;;;;;19.17;100.00;93737.03;4960224;29;20081;-93
2022/06/09 07:29:50;;;;;;;4.10;1.40;;;;;;;19.05;100.00;93740.50;4944189;29;20031;-94
2022/06/09 07:32:16;;;;;;;1.70;1.05;;;;;;;18.61;100.00;93741.13;4944425;29;20031;-94
2022/06/09 07:34:42;;;;;;;2.45;1.20;;;;;;;18.19;100.00;93738.69;4960642;28;20035;-93
2022/06/09 07:37:08;;;;;;;5.13;1.20;;;;;;;18.28;100.00;93742.00;4959840;28;20059;-92
2022/06/09 07:39:33;;;;;;;4.15;0.95;;;;;;;18.89;100.00;93753.69;4960653;28;20038;-94
2022/06/09 07:41:59;;;;;;;2.40;0.70;;;;;;;18.67;100.00;93752.28;4961376;28;20352;-93
2022/06/09 07:44:25;;;;;;;2.17;0.80;;;;;;;18.57;100.00;93745.53;4961591;28;20235;-94
2022/06/09 07:46:52;;;;;;;3.75;0.70;;;;;;;18.54;100.00;93742.78;4960727;28;20046;-88
2022/06/09 07:49:18;;;;;;;2.38;0.88;;;;;;;18.96;100.00;93749.66;4962458;28;20054;-91
2022/06/09 07:51:44;;;;;;;3.47;1.40;;;;;;;18.96;100.00;93757.63;4960850;28;20036;-90
2022/06/09 07:54:10;;;;;;;1.48;1.20;;;;;;;19.34;100.00;93751.16;4960137;28;20082;-92
2022/06/09 07:56:35;;;;;;;2.60;1.20;;;;;;;19.02;100.00;93746.47;4959985;28;20038;-89
2022/06/09 07:59:03;;;;;;;2.80;1.58;;;;;;;19.33;100.00;93742.41;4960257;28;20352;-91
2022/06/09 08:01:29;;;;;;;2.00;1.40;;;;;;;20.22;100.00;93733.63;4960004;28;20038;-90
2022/06/09 08:03:55;;;;;;;4.25;1.30;;;;;;;19.81;100.00;93733.00;4960080;28;20047;-89
2022/06/09 08:06:22;;;;;;;3.05;1.60;;;;;;;19.87;100.00;93732.41;4960365;28;20113;-91
2022/06/09 08:08:48;;;;;;;4.80;1.63;;;;;;;19.36;100.00;93741.72;4959583;28;20082;-90
2022/06/09 08:11:13;;;;;;;2.53;1.50;;;;;;;19.79;100.00;93749.25;4959928;28;20031;-91
2022/06/09 08:13:39;;;;;;;4.20;2.10;;;;;;;19.29;100.00;93757.47;4959853;28;20031;-92
2022/06/09 08:16:05;;;;;;;3.42;2.30;;;;;;;18.99;100.00;93747.16;4943739;29;20035;-92
2022/06/09 08:18:31;;;;;;;6.95;2.90;;;;;;;19.28;100.00;93758.56;4959750;28;20035;-95
2022/06/09 08:20:56;;;;;;;5.82;2.42;;;;;;;18.74;100.00;93747.16;4958868;28;20038;-93
2022/06/09 08:23:24;;;;;;;5.47;3.10;;;;;;;18.75;100.00;93756.66;4960665;28;20039;-93
2022/06/09 08:25:53;;;;;;;4.75;3.53;;;;;;;19.39;100.00;93766.84;4958885;29;20523;-93
2022/06/09 08:28:20;;;;;;;6.22;4.78;;;;;;;19.79;100.00;93759.91;4959694;28;20066;-93
2022/06/09 08:30:58;;;;;;;5.90;5.30;;;;;;;19.96;100.00;93748.22;4960009;28;20066;-93
2022/06/09 08:33:25;;;;;;;4.95;3.72;;;;;;;21.12;100.00;93758.06;4961340;28;20023;-93
2022/06/09 08:35:52;;;;;;;5.30;4.53;;;;;;;21.69;100.00;93760.31;4960002;28;20027;-93
2022/06/09 08:38:18;;;;;;;6.40;5.38;;;;;;;20.85;100.00;93755.97;4958306;29;20027;-91
2022/06/09 08:41:03;;;;;;;5.03;4.03;;;;;;;21.55;100.00;93768.78;4958161;29;20064;-92
2022/06/09 08:43:38;;;;;;;7.40;4.32;;;;;;;21.38;100.00;93775.31;4958486;29;20106;-92
2022/06/09 08:46:49;;;;;;;5.35;3.53;;;;;;;21.54;100.00;93776.00;4958486;29;20035;-91
2022/06/09 08:49:36;;;;;;;7.57;3.75;;;;;;;21.08;100.00;93775.81;4952636;28;20050;-91
2022/06/09 08:52:05;;;;;;;8.18;4.00;;;;;;;20.94;100.00;93777.06;4959945;29;20417;-93
2022/06/09 08:54:36;;;;;;;5.90;4.65;;;;;;;20.22;100.00;93775.41;4975005;28;20023;-94
2022/06/09 08:57:12;;;;;;;7.15;5.25;;;;;;;19.94;100.00;93792.19;4959642;28;20027;-94
2022/06/09 08:59:38;;;;;;;9.32;6.50;;;;;;;19.13;100.00;93783.19;4958151;29;20130;-93
2022/06/09 09:02:38;;;;;;;10.35;5.35;;;;;;;20.34;100.00;93780.63;4958021;29;20031;-93
2022/06/09 09:05:13;;;;;;;6.80;4.75;;;;;;;20.47;100.00;93786.66;4950938;29;20043;-92
2022/06/09 09:07:44;;;;;;;4.38;3.00;;;;;;;21.30;100.00;93787.69;4957842;29;20050;-93
2022/06/09 09:10:27;;;;;;;6.18;2.22;;;;;;;20.60;100.00;93785.44;4958124;29;20027;-90
2022/06/09 09:13:04;;;;;;;10.27;2.50;;;;;;;21.02;100.00;93789.44;4958904;29;20019;-91
2022/06/09 09:15:36;;;;;;;3.20;2.08;;;;;;;21.34;100.00;93799.22;4959029;28;20455;-93
2022/06/09 09:18:27;;;;;;;5.55;2.15;;;;;;;20.34;100.00;93788.63;4957672;29;20038;-91
2022/06/09 09:20:58;;;;;;;5.22;2.13;;;;;;;19.92;100.00;93811.91;4957741;29;20397;-93
2022/06/09 09:23:39;;;;;;;9.23;2.53;;;;;;;19.01;100.00;93807.84;4959192;28;20027;-93
2022/06/09 09:26:36;;;;;;;9.30;2.00;;;;;;;18.54;100.00;93806.44;4958929;29;20126;-94
2022/06/09 09:29:12;;;;;;;5.05;1.05;;;;;;;19.53;100.00;93813.50;4958559;29;20023;-90
2022/06/09 09:31:53;;;;;;;5.72;1.35;;;;;;;20.15;100.00;93816.69;4958100;29;20182;-94
2022/06/09 09:34:22;;;;;;;2.17;1.60;;;;;;;20.13;100.00;93810.94;4958091;29;20019;-91
2022/06/09 09:36:52;;;;;;;2.70;1.15;;;;;;;20.36;100.00;93807.66;4958053;29;20344;-94
2022/06/09 09:39:23;;;;;;;3.47;0.90;;;;;;;20.18;100.00;93810.66;4941902;29;20035;-91
2022/06/09 09:41:56;;;;;;;2.80;0.80;;;;;;;20.58;100.00;93810.84;4957850;29;20030;-95
2022/06/09 09:44:24;;;;;;;3.37;1.30;;;;;;;19.77;100.00;93821.38;4958678;28;20067;-94
2022/06/09 09:46:56;;;;;;;4.15;1.35;;;;;;;19.50;100.00;93812.28;4957829;29;20035;-92
2022/06/09 09:49:23;;;;;;;1.08;0.90;;;;;;;20.07;100.00;93806.97;4941745;29;20440;-91
2022/06/09 09:51:54;;;;;;;1.80;0.70;;;;;;;19.91;100.00;93806.91;4957701;29;20034;-95
2022/06/09 09:54:31;;;;;;;1.63;0.57;;;;;;;20.06;100.00;93821.38;4958031;29;20054;-94
2022/06/09 09:57:16;;;;;;;0.85;0.50;;;;;;;20.02;100.00;93805.34;4957671;29;20027;-93
2022/06/09 09:59:53;;;;;;;0.57;0.45;;;;;;;19.85;100.00;93809.06;4958936;28;20466;-93
2022/06/09 10:10:57;;;;;;;0.30;0.20;;;;;;;20.79;100.00;93802.59;4957538;29;20042;-92
2022/06/09 10:13:30;;;;;;;0.88;0.60;;;;;;;20.50;100.00;93815.22;4963629;28;20026;-92
2022/06/09 10:15:56;;;;;;;0.70;0.28;;;;;;;19.95;100.00;93815.03;4976979;28;20031;-92
2022/06/09 10:18:22;;;;;;;5.85;0.40;;;;;;;19.21;100.00;93806.16;4977958;28;20348;-94
2022/06/09 10:21:10;;;;;;;0.32;0.30;;;;;;;19.64;100.00;93803.94;4976746;28;20042;-93
2022/06/09 10:24:05;;;;;;;1.00;0.30;;;;;;;20.11;100.00;93797.22;4978192;28;20041;-93
2022/06/09 10:26:34;;;;;;;2.28;0.35;;;;;;;20.52;100.00;93793.63;4978399;28;20022;-93
2022/06/09 10:29:33;;;;;;;0.40;0.20;;;;;;;20.62;100.00;93785.88;4960343;28;20026;-93
2022/06/09 10:32:20;;;;;;;2.17;0.38;;;;;;;19.85;100.00;93805.59;4977870;28;20061;-93
2022/06/09 10:34:59;;;;;;;1.10;0.40;;;;;;;20.39;100.00;93788.38;4979984;28;20062;-93
2022/06/09 10:38:02;;;;;;;0.30;0.30;;;;;;;20.02;100.00;93794.72;4980776;28;20094;-93
2022/06/09 10:40:49;;;;;;;0.90;0.30;;;;;;;20.01;100.00;93790.50;4979813;28;20038;-94
2022/06/09 10:43:32;;;;;;;1.48;0.38;;;;;;;19.56;100.00;93788.91;4980872;28;20031;-91
2022/06/09 10:46:16;;;;;;;;;;;;;;;19.98;100.00;93793.06;4981602;28;20034;-94
2022/06/09 10:55:15;;;;;;;1.60;0.50;;;;;;;20.11;100.00;93788.44;4980088;28;20458;-91
2022/06/09 10:57:45;;;;;;;1.10;0.43;;;;;;;19.91;100.00;93785.66;4981097;28;20035;-93
2022/06/09 11:00:17;;;;;;;3.00;0.60;;;;;;;20.04;100.00;93787.16;4980123;28;20117;-90
2022/06/09 11:02:47;;;;;;;0.60;0.40;;;;;;;20.74;100.00;93782.31;4979867;28;20146;-94
2022/06/09 11:05:18;;;;;;;3.63;0.60;;;;;;;20.93;100.00;93778.19;4963803;28;20041;-92
2022/06/09 11:08:21;;;;;;;1.83;0.50;;;;;;;21.10;100.00;93784.25;4979275;28;20061;-94
2022/06/09 11:11:07;;;;;;;1.30;0.32;;;;;;;21.12;100.00;93785.44;4980770;28;20432;-92
2022/06/09 11:14:17;;;;;;;1.92;0.50;;;;;;;20.06;100.00;93779.63;4980889;28;20116;-91
2022/06/09 11:17:03;;;;;;;0.20;0.20;;;;;;;20.27;100.00;93762.63;4958129;28;20467;-90
2022/06/09 11:19:32;;;;;;;0.50;0.28;;;;;;;20.11;100.00;93765.28;4979574;28;20023;-93
2022/06/09 11:22:08;;;;;;;4.60;0.43;;;;;;;20.82;100.00;93769.22;4980282;28;20031;-93
2022/06/09 11:24:36;;;;;;;6.15;1.50;;;;;;;21.03;100.00;93763.59;4979080;28;20086;-90
2022/06/09 11:27:16;;;;;;;2.47;0.70;;;;;;;20.75;100.00;93754.59;4962850;28;20070;-92
2022/06/09 11:30:17;;;;;;;1.38;0.40;;;;;;;21.24;100.00;93744.59;4979983;28;20425;-90
2022/06/09 11:33:39;;;;;;;2.03;0.50;;;;;;;21.31;100.00;93751.97;4979738;28;20034;-92
2022/06/09 11:36:15;;;;;;;2.15;0.45;;;;;;;20.86;97.78;93757.50;4939667;29;20454;-93
2022/06/09 11:39:03;;;;;;;0.88;0.47;;;;;;;21.04;100.00;93752.56;4924191;29;20066;-89
2022/06/09 11:42:04;;;;;;;0.80;0.20;;;;;;;21.75;100.00;93748.22;4938523;28;20053;-91
2022/06/09 11:44:35;;;;;;;1.95;0.35;;;;;;;21.03;100.00;93747.59;4960032;28;20050;-92
2022/06/09 11:47:25;;;;;;;0.70;0.32;;;;;;;21.33;100.00;93752.38;4944165;29;20091;-91
2022/06/09 11:49:53;;;;;;;2.78;0.50;;;;;;;20.82;100.00;93754.00;4961403;29;20054;-94
2022/06/09 11:52:22;;;;;;;0.28;0.28;;;;;;;21.89;100.00;93756.47;4960282;29;20031;-95
2022/06/09 11:54:54;;;;;;;1.58;0.50;;;;;;;21.72;100.00;93751.59;4943852;29;20256;-92
2022/06/09 11:57:20;;;;;;;1.30;0.43;;;;;;;21.45;100.00;93748.78;4960506;28;20042;-89
2022/06/09 11:59:58;;;;;;;0.80;0.30;;;;;;;21.76;100.00;93760.44;4960351;28;20035;-91
2022/06/09 12:02:42;;;;;;;0.80;0.50;;;;;;;22.09;100.00;93759.09;4961843;29;20023;-94
2022/06/09 12:05:14;;;;;;;0.77;0.35;;;;;;;21.01;100.00;93758.59;4963231;28;20046;-94
2022/06/09 12:11:14;;;;;;;1.33;0.50;;;;;;;22.38;98.45;93756.13;4961272;29;20090;-94
2022/06/09 12:14:10;;;;;;;0.50;0.30;;;;;;;22.44;90.12;93766.13;4960065;29;20023;-94
2022/06/09 12:16:56;;;;;;;1.73;0.52;;;;;;;22.59;100.00;93767.16;4961995;28;20074;-94
2022/06/09 12:19:49;;;;;;;6.13;0.40;;;;;;;23.04;100.00;93771.97;4961172;28;20034;-94
2022/06/09 12:22:35;;;;;;;0.90;0.25;;;;;;;22.01;100.00;93773.44;4964678;29;20031;-94
2022/06/09 12:25:21;;;;;;;0.40;0.40;;;;;;;22.30;90.06;93772.00;4960281;29;20118;-92
2022/06/09 12:27:50;;;;;;;2.42;0.40;;;;;;;21.98;100.00;93764.25;4960687;29;20408;-94
2022/06/09 12:30:15;;;;;;;3.03;0.50;;;;;;;21.84;100.00;93777.31;4963336;29;20079;-94
2022/06/09 12:32:48;;;;;;;0.50;0.40;;;;;;;21.47;100.00;93773.19;4962205;28;20413;-94
2022/06/09 12:35:25;;;;;;;0.30;0.30;;;;;;;21.46;99.51;93763.66;4962014;29;20034;-95
2022/06/09 12:38:18;;;;;;;0.32;0.30;;;;;;;22.16;100.00;93774.44;4961487;28;20090;-92
2022/06/09 12:40:48;;;;;;;0.82;0.40;;;;;;;23.40;94.69;93769.78;4962901;28;20349;-94
2022/06/09 12:43:22;;;;;;;1.05;0.52;;;;;;;22.92;83.97;93767.59;4961754;29;20074;-95
2022/06/09 12:46:00;;;;;;;0.60;0.35;;;;;;;23.04;84.91;93769.31;4964841;28;20038;-95
2022/06/09 12:48:28;;;;;;;0.88;0.47;;;;;;;22.99;81.92;93770.38;4963371;28;20054;-94
2022/06/09 12:50:56;;;;;;;2.05;0.73;;;;;;;22.18;94.87;93785.56;4963078;29;20065;-94
2022/06/09 12:53:34;;;;;;;1.40;0.50;;;;;;;22.10;82.86;93779.31;4961225;29;20119;-94
2022/06/09 12:56:21;;;;;;;2.58;0.60;;;;;;;21.58;83.69;93774.19;4960405;28;20038;-94
2022/06/09 12:59:00;;;;;;;1.00;0.40;;;;;;;21.39;100.00;93774.19;4965659;28;20031;-94
2022/06/09 13:01:29;;;;;;;1.25;0.40;;;;;;;21.36;100.00;93780.19;4961387;29;20031;-94
2022/06/09 13:04:01;;;;;;;2.53;0.30;;;;;;;22.16;94.76;93793.91;4963159;28;20035;-95
2022/06/09 13:06:39;;;;;;;0.75;0.40;;;;;;;22.63;89.22;93785.88;4964010;29;20023;-94
2022/06/09 13:09:36;;;;;;;3.10;0.38;;;;;;;23.94;91.20;93782.19;4967786;28;20031;-92
2022/06/09 13:14:54;;;;;;;2.70;0.40;;;;;;;22.31;74.24;93778.91;4958052;29;20074;-93
2022/06/09 13:17:25;;;;;;;0.73;0.30;;;;;;;22.67;88.37;93784.06;4957951;29;20023;-93
2022/06/09 13:20:03;;;;;;;0.77;0.43;;;;;;;22.24;85.32;93783.34;4959544;28;20023;-93
2022/06/09 13:22:29;;;;;;;4.40;1.27;;;;;;;22.13;82.08;93783.94;4957836;29;20031;-93
2022/06/09 13:24:57;;;;;;;0.20;0.20;;;;;;;21.67;91.27;93775.91;4942747;29;20055;-93
2022/06/09 13:27:25;;;;;;;1.25;0.25;;;;;;;20.91;100.00;93783.09;4958202;29;20058;-94
2022/06/09 13:30:28;;;;;;;0.98;0.40;;;;;;;20.67;100.00;93787.50;4958099;29;20035;-93
2022/06/09 13:32:54;;;;;;;1.77;0.40;;;;;;;19.73;100.00;93793.16;4942635;29;20038;-93
2022/06/09 13:35:43;;;;;;;2.58;0.40;;;;;;;20.18;100.00;93789.38;4958988;28;20031;-94
2022/06/09 13:38:24;;;;;;;1.40;0.35;;;;;;;19.89;100.00;93799.28;4957824;29;20031;-93
2022/06/09 13:40:53;;;;;;;0.30;0.30;;;;;;;19.77;100.00;93805.44;4958409;29;20027;-94
2022/06/09 13:43:30;;;;;;;3.08;0.38;;;;;;;19.55;96.54;93813.94;4958793;29;20031;-93
2022/06/09 13:46:11;;;;;;;0.40;0.28;;;;;;;19.52;100.00;93825.22;4958277;29;20468;-93
2022/06/09 13:48:47;;;;;;;9.07;0.40;;;;;;;19.27;100.00;93823.44;4958112;29;20174;-92
2022/06/09 13:51:28;;;;;;;3.67;0.60;;;;;;;19.27;100.00;93817.31;4926756;29;20035;-92
2022/06/09 13:54:02;;;;;;;2.42;0.40;;;;;;;19.06;100.00;93823.56;4957513;28;20122;-92
2022/06/09 13:56:27;;;;;;;0.90;0.25;;;;;;;19.82;100.00;93841.63;4941606;29;20440;-93
2022/06/09 13:58:53;;;;;;;4.78;0.65;;;;;;;18.91;100.00;93836.38;4941513;29;20042;-91
2022/06/09 14:01:19;;;;;;;2.35;0.63;;;;;;;18.50;100.00;93838.91;4957183;29;20078;-91
2022/06/09 14:03:47;;;;;;;5.35;0.52;;;;;;;18.16;100.00;93840.84;4957126;29;20067;-93
2022/06/09 14:06:19;;;;;;;1.50;0.30;;;;;;;17.88;100.00;93861.84;4942452;29;20035;-94
2022/06/09 14:08:46;;;;;;;1.70;0.40;;;;;;;18.14;100.00;93874.09;4945276;29;20038;-91
2022/06/09 14:11:25;;;;;;;5.18;0.60;;;;;;;18.14;100.00;93858.19;4960791;29;20334;-92
2022/06/09 14:13:55;;;;;;;4.10;0.40;;;;;;;18.18;100.00;93854.56;4945053;29;20055;-91
2022/06/09 14:16:24;;;;;;;3.80;0.68;;;;;;;17.48;100.00;93853.28;4945281;29;20031;-92
2022/06/09 14:18:50;;;;;;;4.68;0.50;;;;;;;17.44;100.00;93854.25;4944933;29;20061;-95
2022/06/09 14:21:15;;;;;;;4.22;0.40;;;;;;;16.98;100.00;93865.41;4945047;29;20125;-94
2022/06/09 14:23:41;;;;;;;0.80;0.52;;;;;;;16.95;100.00;93884.56;4944775;29;20330;-94
2022/06/09 14:26:12;;;;;;;2.20;0.43;;;;;;;15.86;100.00;93869.63;4944639;29;20113;-93
2022/06/09 14:28:38;;;;;;;1.17;0.45;;;;;;;16.29;100.00;93869.88;4961213;29;20027;-90
2022/06/09 14:31:04;;;;;;;1.23;0.50;;;;;;;15.82;100.00;93876.63;4974242;28;20141;-95
2022/06/09 14:33:29;;;;;;;0.75;0.40;;;;;;;16.10;100.00;93892.16;4965732;28;20029;-94
2022/06/09 14:35:56;;;;;;;5.43;0.90;;;;;;;15.88;100.00;93885.94;4966194;28;20058;-93
2022/06/09 14:38:22;;;;;;;11.07;0.70;;;;;;;15.36;100.00;93890.13;4964824;28;20023;-93
2022/06/09 14:40:49;;;;;;;4.03;0.75;;;;;;;15.40;100.00;93903.47;4964196;28;20049;-94
2022/06/09 14:43:15;;;;;;;7.05;0.70;;;;;;;15.30;100.00;93895.88;4979943;28;20023;-92
2022/06/09 14:45:45;;;;;;;4.13;0.73;;;;;;;15.04;100.00;93897.34;4964194;28;20026;-92
2022/06/09 14:48:16;;;;;;;4.30;0.75;;;;;;;14.83;100.00;93903.19;4963893;28;20376;-93